createdAt,value
2023-02-27T00:01:29.261Z,62.38
2023-02-27T00:03:31.047Z,63.66
2023-02-27T00:05:33.125Z,63.62
2023-02-27T00:07:35.137Z,63.67
2023-02-27T00:09:38.327Z,63.07
2023-02-27T00:11:40.699Z,63.83
2023-02-27T00:13:46.566Z,62.84
2023-02-27T00:15:51.704Z,63.06
2023-02-27T00:17:53.877Z,63.00
2023-02-27T00:19:55.473Z,62.88
2023-02-27T00:21:57.348Z,63.50
2023-02-27T00:23:59.203Z,63.34
2023-02-27T00:26:01.585Z,63.18
2023-02-27T00:28:04.626Z,62.17
2023-02-27T00:30:10.818Z,63.19
2023-02-27T00:32:12.949Z,63.15
2023-02-27T00:34:18.588Z,63.03
2023-02-27T00:36:20.493Z,63.61
2023-02-27T00:38:22.680Z,63.06
2023-02-27T00:40:25.577Z,63.43
2023-02-27T00:42:28.980Z,62.74
2023-02-27T00:44:30.951Z,62.66
2023-02-27T00:46:35.796Z,62.51
2023-02-27T00:48:37.732Z,62.95
2023-02-27T00:50:40.437Z,62.09
2023-02-27T00:52:42.404Z,62.17
2023-02-27T00:54:44.383Z,62.53
2023-02-27T00:56:46.063Z,62.38
2023-02-27T00:58:47.797Z,62.26
2023-02-27T01:00:49.658Z,62.01
2023-02-27T01:02:51.718Z,62.90
2023-02-27T01:04:53.764Z,62.21
2023-02-27T01:06:55.583Z,62.05
2023-02-27T01:09:00.702Z,62.51
2023-02-27T01:11:02.548Z,61.78
2023-02-27T01:13:07.396Z,62.11
2023-02-27T01:15:12.870Z,62.55
2023-02-27T01:17:14.746Z,62.28
2023-02-27T01:19:16.561Z,62.14
2023-02-27T01:21:18.878Z,62.47
2023-02-27T01:23:21.931Z,62.21
2023-02-27T01:25:24.840Z,61.77
2023-02-27T01:27:27.127Z,62.15
2023-02-27T01:29:28.830Z,61.38
2023-02-27T01:31:30.777Z,61.02
2023-02-27T01:33:32.656Z,61.09
2023-02-27T01:35:36.026Z,61.57
2023-02-27T01:37:37.802Z,60.63
2023-02-27T01:39:39.507Z,61.11
2023-02-27T01:41:41.585Z,61.54
2023-02-27T01:44:03.173Z,61.05
2023-02-27T01:46:05.436Z,61.71
2023-02-27T01:48:18.291Z,61.99
2023-02-27T01:50:20.808Z,61.97
2023-02-27T01:52:23.553Z,62.24
2023-02-27T01:54:27.263Z,61.94
2023-02-27T01:56:31.168Z,62.27
2023-02-27T01:58:34.322Z,60.76
2023-02-27T02:00:37.475Z,62.22
2023-02-27T02:02:47.669Z,62.36
2023-02-27T02:04:51.996Z,62.81
2023-02-27T02:07:00.157Z,61.87
2023-02-27T02:09:03.664Z,61.68
2023-02-27T02:11:07.628Z,61.89
2023-02-27T02:13:10.133Z,61.44
2023-02-27T02:15:13.367Z,61.82
2023-02-27T02:17:44.159Z,61.73
2023-02-27T02:20:22.107Z,61.95
2023-02-27T02:22:30.206Z,61.46
2023-02-27T02:25:04.429Z,62.50
2023-02-27T02:27:29.307Z,62.53
2023-02-27T02:29:52.821Z,61.42
2023-02-27T02:32:14.184Z,61.36
2023-02-27T02:34:58.823Z,62.06
2023-02-27T02:37:48.428Z,62.71
2023-02-27T02:40:16.394Z,61.62
2023-02-27T02:42:27.602Z,62.12
2023-02-27T02:44:41.511Z,61.84
2023-02-27T02:46:50.074Z,62.48
2023-02-27T02:49:10.889Z,62.26
2023-02-27T02:51:18.665Z,62.90
2023-02-27T02:53:48.317Z,63.57
2023-02-27T02:55:57.450Z,63.07
2023-02-27T02:58:16.733Z,63.28
2023-02-27T03:00:22.980Z,63.17
2023-02-27T03:02:33.429Z,63.00
2023-02-27T03:05:14.564Z,62.72
2023-02-27T03:07:54.283Z,63.79
2023-02-27T03:10:13.932Z,63.94
2023-02-27T03:12:22.533Z,63.75
2023-02-27T03:14:32.716Z,63.60
2023-02-27T03:16:44.896Z,63.36
2023-02-27T03:18:59.053Z,63.69
2023-02-27T03:21:15.118Z,63.30
2023-02-27T03:23:23.260Z,63.32
2023-02-27T03:25:27.040Z,64.05
2023-02-27T03:27:37.632Z,63.54
2023-02-27T03:29:45.743Z,64.11
2023-02-27T03:31:56.829Z,64.39
2023-02-27T03:34:13.179Z,63.63
2023-02-27T03:36:45.819Z,64.14
2023-02-27T03:39:02.742Z,64.20
2023-02-27T03:41:10.052Z,63.77
2023-02-27T03:43:37.092Z,63.61
2023-02-27T03:45:50.373Z,63.81
2023-02-27T03:47:54.660Z,64.44
2023-02-27T03:49:56.669Z,63.81
2023-02-27T03:51:58.204Z,63.47
2023-02-27T03:54:11.576Z,63.54
2023-02-27T03:56:18.904Z,63.65
2023-02-27T03:58:20.762Z,63.88
2023-02-27T04:00:24.933Z,63.63
2023-02-27T04:02:27.378Z,64.32
2023-02-27T04:04:31.865Z,64.76
2023-02-27T04:07:16.300Z,64.21
2023-02-27T04:09:34.027Z,64.61
2023-02-27T04:12:03.137Z,64.62
2023-02-27T04:14:32.273Z,64.34
2023-02-27T04:16:53.621Z,64.17
2023-02-27T04:19:33.098Z,64.69
2023-02-27T04:21:52.136Z,64.86
2023-02-27T04:24:16.981Z,65.08
2023-02-27T04:26:31.854Z,65.17
2023-02-27T04:28:54.976Z,65.11
2023-02-27T04:31:08.538Z,65.16
2023-02-27T04:33:24.426Z,65.60
2023-02-27T04:35:32.726Z,65.38
2023-02-27T04:37:49.199Z,65.75
2023-02-27T04:40:00.544Z,65.92
2023-02-27T04:42:06.558Z,66.09
2023-02-27T04:44:10.885Z,66.65
2023-02-27T04:46:17.069Z,66.60
2023-02-27T04:48:24.329Z,66.09
2023-02-27T04:50:32.109Z,65.64
2023-02-27T04:52:39.901Z,65.40
2023-02-27T04:54:54.644Z,65.91
2023-02-27T04:57:02.262Z,65.83
2023-02-27T04:59:16.900Z,65.62
2023-02-27T05:01:24.133Z,66.51
2023-02-27T05:03:32.076Z,66.49
2023-02-27T05:05:36.782Z,65.71
2023-02-27T05:07:45.108Z,66.52
2023-02-27T05:09:55.217Z,66.05
2023-02-27T05:12:03.990Z,67.03
2023-02-27T05:14:18.166Z,66.39
2023-02-27T05:16:26.987Z,66.42
2023-02-27T05:18:28.663Z,65.98
2023-02-27T05:20:42.856Z,65.46
2023-02-27T05:22:56.625Z,66.79
2023-02-27T05:25:23.526Z,66.55
2023-02-27T05:27:47.205Z,65.63
2023-02-27T05:29:53.777Z,66.57
2023-02-27T05:32:20.831Z,66.35
2023-02-27T05:34:36.129Z,66.17
2023-02-27T05:36:44.120Z,65.71
2023-02-27T05:38:53.524Z,66.29
2023-02-27T05:41:09.385Z,66.54
2023-02-27T05:43:18.930Z,66.28
2023-02-27T05:45:25.082Z,66.77
2023-02-27T05:47:31.907Z,66.90
2023-02-27T05:49:51.211Z,66.40
2023-02-27T05:51:57.132Z,66.71
2023-02-27T05:54:17.931Z,66.17
2023-02-27T05:56:23.812Z,66.99
2023-02-27T05:58:45.648Z,66.92
2023-02-27T06:00:57.244Z,67.45
2023-02-27T06:02:59.030Z,67.22
2023-02-27T06:05:00.843Z,67.01
2023-02-27T06:07:06.439Z,66.99
2023-02-27T06:09:09.729Z,67.22
2023-02-27T06:11:13.550Z,67.33
2023-02-27T06:13:17.194Z,66.88
2023-02-27T06:15:19.520Z,66.62
2023-02-27T06:17:21.584Z,67.46
2023-02-27T06:19:23.154Z,66.75
2023-02-27T06:21:24.928Z,67.18
2023-02-27T06:23:26.423Z,67.39
2023-02-27T06:25:28.313Z,67.11
2023-02-27T06:27:30.193Z,66.99
2023-02-27T06:29:32.032Z,67.39
2023-02-27T06:31:33.885Z,67.53
2023-02-27T06:33:35.739Z,67.55
2023-02-27T06:35:37.337Z,67.89
2023-02-27T06:37:38.971Z,89.01
2023-02-27T06:39:40.475Z,73.83
2023-02-27T06:41:42.403Z,70.61
2023-02-27T06:43:44.125Z,69.16
2023-02-27T06:45:45.615Z,69.13
2023-02-27T06:47:47.699Z,68.61
2023-02-27T06:49:49.357Z,69.00
2023-02-27T06:51:50.924Z,67.70
2023-02-27T06:53:52.637Z,67.53
2023-02-27T06:55:54.745Z,68.03
2023-02-27T06:57:56.587Z,67.68
2023-02-27T06:59:58.072Z,67.40
2023-02-27T07:02:00.484Z,67.36
2023-02-27T07:04:02.084Z,67.53
2023-02-27T07:06:04.189Z,67.33
2023-02-27T07:08:06.694Z,66.01
2023-02-27T07:10:11.718Z,66.70
2023-02-27T07:12:13.342Z,65.91
2023-02-27T07:14:16.589Z,65.50
2023-02-27T07:16:18.132Z,66.12
2023-02-27T07:18:20.026Z,65.87
2023-02-27T07:20:21.723Z,65.68
2023-02-27T07:22:23.404Z,65.67
2023-02-27T07:24:25.535Z,64.89
2023-02-27T07:26:27.224Z,64.59
2023-02-27T07:28:28.932Z,64.73
2023-02-27T07:30:30.941Z,64.57
2023-02-27T07:32:32.713Z,65.18
2023-02-27T07:34:34.824Z,64.22
2023-02-27T07:36:36.508Z,64.45
2023-02-27T07:38:38.006Z,63.80
2023-02-27T07:40:39.521Z,62.92
2023-02-27T07:42:41.103Z,62.78
2023-02-27T07:44:42.697Z,62.32
2023-02-27T07:46:44.870Z,63.03
2023-02-27T07:48:47.165Z,63.03
2023-02-27T07:50:48.920Z,61.92
2023-02-27T07:52:54.136Z,62.63
2023-02-27T07:54:55.727Z,62.63
2023-02-27T07:56:57.212Z,61.43
2023-02-27T07:58:58.720Z,62.93
2023-02-27T08:01:00.225Z,62.04
2023-02-27T08:03:01.806Z,61.75
2023-02-27T08:05:04.209Z,61.86
2023-02-27T08:07:05.783Z,62.01
2023-02-27T08:09:07.455Z,61.70
2023-02-27T08:11:09.563Z,62.23
2023-02-27T08:13:11.164Z,60.68
2023-02-27T08:15:12.741Z,60.56
2023-02-27T08:17:14.760Z,60.28
2023-02-27T08:19:16.432Z,60.08
2023-02-27T08:21:17.940Z,60.89
2023-02-27T08:23:19.415Z,60.97
2023-02-27T08:25:21.426Z,59.96
2023-02-27T08:27:22.966Z,59.20
2023-02-27T08:29:24.762Z,59.36
2023-02-27T08:31:26.492Z,59.49
2023-02-27T08:33:28.012Z,59.71
2023-02-27T08:35:29.813Z,59.38
2023-02-27T08:37:31.857Z,58.19
2023-02-27T08:39:33.612Z,57.39
2023-02-27T08:41:35.830Z,57.36
2023-02-27T08:43:37.591Z,58.32
2023-02-27T08:45:39.110Z,57.20
2023-02-27T08:47:41.161Z,55.14
2023-02-27T08:49:42.908Z,57.29
2023-02-27T08:51:44.418Z,57.15
2023-02-27T08:53:46.125Z,57.08
2023-02-27T08:55:51.736Z,56.97
2023-02-27T08:57:53.194Z,57.06
2023-02-27T08:59:55.212Z,55.48
2023-02-27T09:01:56.789Z,55.60
2023-02-27T09:03:58.486Z,56.07
2023-02-27T09:06:00.014Z,53.99
2023-02-27T09:08:02.577Z,54.33
2023-02-27T09:10:07.079Z,55.46
2023-02-27T09:12:09.090Z,54.90
2023-02-27T09:14:11.124Z,55.10
2023-02-27T09:16:13.538Z,54.12
2023-02-27T09:18:15.807Z,54.38
2023-02-27T09:20:17.465Z,53.77
2023-02-27T09:22:19.762Z,54.00
2023-02-27T09:24:22.318Z,53.89
2023-02-27T09:26:39.745Z,55.23
2023-02-27T09:28:43.839Z,54.15
2023-02-27T09:30:45.705Z,53.73
2023-02-27T09:32:47.397Z,53.61
2023-02-27T09:34:48.915Z,53.15
2023-02-27T09:36:50.917Z,55.05
2023-02-27T09:38:52.497Z,54.41
2023-02-27T09:40:56.755Z,53.65
2023-02-27T09:43:03.240Z,53.84
2023-02-27T09:45:08.438Z,53.85
2023-02-27T09:47:50.735Z,53.72
2023-02-27T09:50:06.303Z,54.07
2023-02-27T09:52:13.468Z,52.13
2023-02-27T09:54:15.688Z,52.02
2023-02-27T09:56:23.903Z,52.72
2023-02-27T09:58:47.288Z,52.47
2023-02-27T10:00:53.633Z,51.12
2023-02-27T10:03:09.601Z,50.95
2023-02-27T10:05:26.981Z,49.84
2023-02-27T10:07:49.257Z,51.24
2023-02-27T10:10:12.841Z,50.37
2023-02-27T10:12:27.707Z,50.63
2023-02-27T10:14:41.490Z,50.40
2023-02-27T10:16:43.398Z,48.82
2023-02-27T10:18:58.003Z,49.87
2023-02-27T10:21:21.890Z,50.41
2023-02-27T10:23:36.117Z,51.09
2023-02-27T10:25:49.778Z,48.78
2023-02-27T10:27:58.406Z,48.24
2023-02-27T10:30:28.327Z,47.41
2023-02-27T10:32:33.160Z,48.05
2023-02-27T10:34:37.035Z,48.15
2023-02-27T10:36:40.938Z,48.53
2023-02-27T10:38:49.336Z,48.81
2023-02-27T10:40:51.157Z,50.35
2023-02-27T10:42:54.961Z,50.03
2023-02-27T10:44:56.780Z,49.18
2023-02-27T10:46:58.340Z,49.92
2023-02-27T10:49:01.652Z,50.54
2023-02-27T10:51:21.667Z,50.08
2023-02-27T10:53:26.433Z,50.60
2023-02-27T10:55:34.116Z,84.65
2023-02-27T10:57:42.872Z,50.53
2023-02-27T10:59:50.495Z,48.94
2023-02-27T11:01:58.600Z,49.67
2023-02-27T11:04:00.239Z,47.83
2023-02-27T11:06:08.055Z,47.62
2023-02-27T11:08:23.363Z,46.81
2023-02-27T11:10:28.892Z,43.78
2023-02-27T11:12:34.535Z,41.96
2023-02-27T11:14:47.133Z,42.63
2023-02-27T11:16:51.566Z,42.25
2023-02-27T11:18:54.351Z,42.00
2023-02-27T11:21:20.391Z,41.39
2023-02-27T11:23:32.561Z,39.78
2023-02-27T11:25:34.218Z,39.40
2023-02-27T11:27:36.080Z,38.46
2023-02-27T11:29:37.812Z,39.13
2023-02-27T11:31:40.049Z,39.53
2023-02-27T11:33:51.503Z,39.58
2023-02-27T11:35:57.053Z,39.74
2023-02-27T11:38:03.897Z,37.53
2023-02-27T11:40:14.378Z,38.83
2023-02-27T11:42:21.046Z,36.52
2023-02-27T11:44:49.845Z,34.94
2023-02-27T11:46:50.064Z,33.73
2023-02-27T11:49:13.520Z,35.44
2023-02-27T11:51:29.374Z,31.91
2023-02-27T11:53:48.943Z,34.66
2023-02-27T11:55:54.559Z,36.41
2023-02-27T11:58:04.631Z,35.19
2023-02-27T12:00:25.764Z,33.08
2023-02-27T12:02:52.501Z,34.83
2023-02-27T12:04:54.003Z,33.39
2023-02-27T12:07:03.737Z,33.76
2023-02-27T12:09:19.121Z,33.18
2023-02-27T12:11:20.599Z,32.80
2023-02-27T12:13:27.564Z,34.90
2023-02-27T12:15:37.943Z,37.44
2023-02-27T12:17:45.779Z,39.77
2023-02-27T12:20:21.585Z,38.37
2023-02-27T12:22:29.613Z,38.89
2023-02-27T12:24:40.956Z,38.18
2023-02-27T12:26:45.887Z,36.13
2023-02-27T12:29:15.696Z,34.69
2023-02-27T12:31:35.331Z,32.74
2023-02-27T12:34:03.901Z,33.71
2023-02-27T12:36:11.521Z,31.91
2023-02-27T12:38:15.260Z,31.87
2023-02-27T12:40:19.801Z,32.19
2023-02-27T12:42:36.317Z,31.80
2023-02-27T12:45:02.557Z,32.22
2023-02-27T12:47:12.680Z,31.81
2023-02-27T12:49:19.731Z,33.29
2023-02-27T12:51:44.376Z,32.73
2023-02-27T12:54:04.183Z,34.49
2023-02-27T12:56:22.155Z,37.09
2023-02-27T12:58:42.420Z,37.78
2023-02-27T13:00:53.551Z,39.02
2023-02-27T13:03:37.730Z,39.43
2023-02-27T13:06:01.650Z,42.21
2023-02-27T13:08:24.252Z,39.76
2023-02-27T13:10:36.544Z,38.85
2023-02-27T13:12:47.003Z,36.72
2023-02-27T13:14:55.055Z,34.74
2023-02-27T13:17:28.991Z,34.55
2023-02-27T13:19:34.248Z,37.00
2023-02-27T13:21:51.803Z,38.23
2023-02-27T13:24:01.925Z,39.17
2023-02-27T13:26:14.331Z,39.85
2023-02-27T13:28:25.125Z,39.08
2023-02-27T13:30:33.405Z,39.17
2023-02-27T13:32:54.058Z,38.41
2023-02-27T13:35:06.181Z,38.42
2023-02-27T13:37:09.366Z,38.82
2023-02-27T13:39:43.975Z,36.49
2023-02-27T13:41:58.060Z,35.87
2023-02-27T13:44:20.417Z,35.67
2023-02-27T13:46:33.228Z,34.41
2023-02-27T13:48:42.852Z,31.51
2023-02-27T13:50:44.290Z,29.96
2023-02-27T13:52:47.010Z,32.15
2023-02-27T13:54:48.710Z,33.98
2023-02-27T13:56:59.111Z,47.02
2023-02-27T13:59:32.074Z,33.25
2023-02-27T14:01:34.877Z,34.40
2023-02-27T14:03:37.238Z,34.41
2023-02-27T14:05:42.869Z,34.41
2023-02-27T14:07:54.451Z,34.43
2023-02-27T14:10:11.367Z,35.49
2023-02-27T14:12:45.699Z,36.63
2023-02-27T14:14:50.340Z,38.05
2023-02-27T14:16:52.014Z,38.29
2023-02-27T14:18:58.913Z,38.85
2023-02-27T14:21:00.416Z,39.26
2023-02-27T14:23:17.306Z,39.21
2023-02-27T14:25:26.111Z,39.17
2023-02-27T14:27:30.246Z,38.85
2023-02-27T14:29:34.838Z,39.20
2023-02-27T14:31:40.532Z,39.69
2023-02-27T14:33:48.437Z,39.16
2023-02-27T14:36:02.719Z,41.50
2023-02-27T14:38:10.828Z,41.25
2023-02-27T14:40:31.386Z,40.13
2023-02-27T14:42:33.071Z,39.43
2023-02-27T14:44:42.982Z,38.72
2023-02-27T14:46:45.907Z,35.68
2023-02-27T14:48:52.183Z,36.09
2023-02-27T14:51:02.827Z,38.43
2023-02-27T14:53:27.473Z,38.08
2023-02-27T14:55:37.671Z,38.58
2023-02-27T14:57:40.030Z,39.51
2023-02-27T14:59:42.876Z,40.61
2023-02-27T15:01:44.443Z,39.79
2023-02-27T15:03:53.213Z,40.33
2023-02-27T15:06:13.136Z,41.66
2023-02-27T15:08:19.454Z,41.71
2023-02-27T15:10:33.325Z,42.38
2023-02-27T15:12:39.639Z,42.03
2023-02-27T15:14:41.998Z,43.74
2023-02-27T15:16:45.244Z,42.05
2023-02-27T15:18:50.690Z,43.34
2023-02-27T15:20:59.178Z,42.26
2023-02-27T15:23:19.925Z,42.14
2023-02-27T15:25:35.372Z,43.08
2023-02-27T15:27:37.604Z,41.55
2023-02-27T15:29:42.752Z,43.10
2023-02-27T15:31:46.301Z,44.54
2023-02-27T15:33:49.417Z,43.31
2023-02-27T15:35:54.226Z,37.14
2023-02-27T15:37:58.629Z,38.35
2023-02-27T15:40:01.376Z,36.40
2023-02-27T15:42:26.288Z,36.45
2023-02-27T15:44:47.844Z,37.88
2023-02-27T15:46:51.401Z,39.27
2023-02-27T15:48:54.609Z,39.89
2023-02-27T15:51:03.696Z,42.40
2023-02-27T15:53:08.408Z,43.16
2023-02-27T15:55:14.855Z,44.01
2023-02-27T15:57:16.513Z,45.11
2023-02-27T15:59:19.567Z,46.12
2023-02-27T16:01:23.451Z,46.00
2023-02-27T16:03:49.856Z,47.11
2023-02-27T16:05:53.516Z,47.93
2023-02-27T16:08:18.281Z,47.75
2023-02-27T16:10:23.909Z,47.25
2023-02-27T16:12:37.760Z,47.22
2023-02-27T16:14:45.110Z,47.70
2023-02-27T16:16:56.470Z,48.30
2023-02-27T16:19:02.614Z,48.92
2023-02-27T16:21:19.380Z,48.48
2023-02-27T16:23:25.129Z,48.04
2023-02-27T16:25:27.024Z,47.89
2023-02-27T16:27:30.154Z,48.71
2023-02-27T16:29:36.628Z,49.25
2023-02-27T16:31:46.966Z,50.37
2023-02-27T16:33:48.719Z,50.43
2023-02-27T16:35:51.027Z,49.89
2023-02-27T16:38:00.956Z,51.52
2023-02-27T16:40:12.632Z,50.02
2023-02-27T16:42:14.270Z,51.08
2023-02-27T16:44:18.062Z,51.02
2023-02-27T16:46:20.482Z,50.60
2023-02-27T16:48:22.481Z,50.66
2023-02-27T16:50:41.418Z,49.80
2023-02-27T16:52:43.638Z,50.06
2023-02-27T16:54:45.729Z,50.84
2023-02-27T16:56:50.655Z,51.01
2023-02-27T16:59:28.424Z,50.70
2023-02-27T17:01:32.334Z,51.51
2023-02-27T17:03:35.458Z,51.30
2023-02-27T17:05:37.085Z,50.58
2023-02-27T17:07:38.872Z,51.40
2023-02-27T17:09:41.709Z,51.79
2023-02-27T17:11:43.240Z,51.40
2023-02-27T17:13:44.859Z,51.48
2023-02-27T17:15:46.870Z,51.37
2023-02-27T17:17:48.811Z,52.32
2023-02-27T17:19:51.280Z,52.21
2023-02-27T17:21:52.772Z,52.15
2023-02-27T17:23:57.328Z,52.19
2023-02-27T17:25:59.252Z,52.06
2023-02-27T17:28:00.945Z,52.49
2023-02-27T17:30:02.853Z,52.57
2023-02-27T17:32:05.290Z,52.82
2023-02-27T17:34:25.105Z,53.02
2023-02-27T17:36:29.899Z,52.88
2023-02-27T17:38:32.914Z,52.57
2023-02-27T17:40:37.236Z,52.64
2023-02-27T17:42:39.750Z,52.94
2023-02-27T17:44:42.522Z,53.01
2023-02-27T17:46:45.138Z,53.49
2023-02-27T17:49:07.212Z,52.59
2023-02-27T17:51:12.411Z,53.50
2023-02-27T17:53:15.515Z,52.21
2023-02-27T17:55:17.297Z,52.35
2023-02-27T17:57:18.862Z,53.01
2023-02-27T17:59:23.110Z,52.89
2023-02-27T18:01:25.913Z,52.98
2023-02-27T18:03:27.772Z,52.57
2023-02-27T18:05:29.423Z,53.02
2023-02-27T18:07:31.554Z,53.22
2023-02-27T18:09:33.819Z,53.48
2023-02-27T18:11:53.713Z,53.64
2023-02-27T18:13:58.532Z,53.42
2023-02-27T18:16:00.630Z,53.74
2023-02-27T18:18:02.538Z,53.46
2023-02-27T18:20:05.226Z,53.62
2023-02-27T18:22:07.332Z,54.04
2023-02-27T18:24:17.605Z,53.61
2023-02-27T18:26:31.260Z,54.41
2023-02-27T18:28:33.131Z,54.05
2023-02-27T18:30:38.389Z,53.95
2023-02-27T18:32:49.118Z,54.05
2023-02-27T18:34:50.992Z,54.91
2023-02-27T18:36:53.162Z,54.87
2023-02-27T18:38:55.021Z,55.22
2023-02-27T18:40:57.138Z,55.33
2023-02-27T18:42:59.053Z,54.68
2023-02-27T18:45:00.996Z,54.99
2023-02-27T18:47:02.571Z,54.95
2023-02-27T18:49:22.935Z,55.63
2023-02-27T18:51:24.852Z,55.52
2023-02-27T18:53:26.420Z,56.61
2023-02-27T18:55:28.083Z,56.49
2023-02-27T18:57:29.653Z,55.80
2023-02-27T18:59:31.258Z,55.39
2023-02-27T19:01:51.398Z,55.86
2023-02-27T19:04:07.659Z,55.55
2023-02-27T19:06:09.295Z,55.92
2023-02-27T19:08:11.513Z,56.15
2023-02-27T19:10:15.034Z,56.07
2023-02-27T19:12:17.302Z,56.03
2023-02-27T19:14:18.999Z,56.25
2023-02-27T19:16:30.991Z,56.46
2023-02-27T19:18:38.930Z,56.18
2023-02-27T19:20:40.544Z,56.53
2023-02-27T19:22:42.543Z,56.50
2023-02-27T19:24:45.529Z,56.27
2023-02-27T19:26:47.742Z,56.91
2023-02-27T19:28:56.178Z,56.90
2023-02-27T19:30:58.228Z,56.42
2023-02-27T19:33:00.129Z,57.91
2023-02-27T19:35:01.795Z,57.06
2023-02-27T19:37:03.443Z,57.44
2023-02-27T19:39:05.060Z,57.12
2023-02-27T19:41:12.196Z,57.17
2023-02-27T19:43:15.221Z,57.34
2023-02-27T19:45:16.995Z,57.76
2023-02-27T19:47:19.289Z,57.23
2023-02-27T19:49:21.199Z,57.21
2023-02-27T19:51:23.894Z,57.26
2023-02-27T19:53:26.342Z,57.04
2023-02-27T19:55:47.134Z,58.00
2023-02-27T19:57:48.746Z,57.50
2023-02-27T19:59:56.490Z,57.30
2023-02-27T20:02:03.824Z,57.64
2023-02-27T20:04:07.041Z,58.16
2023-02-27T20:06:16.675Z,57.91
2023-02-27T20:08:33.161Z,57.86
2023-02-27T20:10:34.914Z,57.80
2023-02-27T20:12:36.526Z,58.75
2023-02-27T20:14:38.108Z,58.87
2023-02-27T20:16:40.822Z,58.70
2023-02-27T20:18:43.213Z,58.47
2023-02-27T20:20:45.317Z,58.58
2023-02-27T20:22:47.184Z,58.99
2023-02-27T20:24:51.816Z,59.25
2023-02-27T20:26:54.097Z,59.89
2023-02-27T20:28:58.617Z,59.21
2023-02-27T20:31:00.466Z,59.76
2023-02-27T20:33:20.676Z,58.79
2023-02-27T20:35:38.795Z,59.54
2023-02-27T20:37:40.474Z,59.46
2023-02-27T20:39:45.214Z,59.97
2023-02-27T20:41:48.012Z,60.09
2023-02-27T20:43:49.935Z,60.05
2023-02-27T20:45:51.856Z,60.35
2023-02-27T20:47:53.805Z,60.39
2023-02-27T20:50:14.253Z,60.68
2023-02-27T20:52:15.908Z,61.26
2023-02-27T20:54:22.426Z,60.30
2023-02-27T20:56:26.730Z,61.21
2023-02-27T20:58:28.289Z,61.07
2023-02-27T21:00:29.956Z,61.17
2023-02-27T21:02:31.486Z,61.97
2023-02-27T21:04:47.034Z,62.54
2023-02-27T21:06:49.205Z,62.26
2023-02-27T21:08:53.821Z,62.23
2023-02-27T21:10:55.875Z,62.79
2023-02-27T21:12:58.655Z,62.70
2023-02-27T21:15:00.417Z,62.00
2023-02-27T21:17:02.411Z,62.69
2023-02-27T21:19:04.546Z,62.68
2023-02-27T21:21:09.809Z,63.38
2023-02-27T21:23:11.515Z,63.43
2023-02-27T21:25:13.698Z,63.90
2023-02-27T21:27:19.584Z,63.76
2023-02-27T21:29:39.737Z,63.74
2023-02-27T21:31:45.492Z,64.72
2023-02-27T21:33:51.529Z,64.00
2023-02-27T21:35:53.073Z,64.17
2023-02-27T21:37:55.107Z,64.78
2023-02-27T21:39:57.127Z,65.02
2023-02-27T21:41:59.824Z,65.12
2023-02-27T21:44:04.404Z,65.38
2023-02-27T21:46:07.992Z,65.60
2023-02-27T21:48:09.491Z,65.38
2023-02-27T21:50:23.170Z,66.28
2023-02-27T21:52:24.730Z,65.97
2023-02-27T21:54:41.332Z,65.71
2023-02-27T21:56:52.207Z,65.81
2023-02-27T21:58:54.308Z,65.66
2023-02-27T22:00:55.893Z,65.88
2023-02-27T22:02:58.151Z,66.39
2023-02-27T22:05:00.386Z,65.78
2023-02-27T22:07:13.991Z,65.52
2023-02-27T22:09:16.304Z,65.98
2023-02-27T22:11:18.391Z,67.08
2023-02-27T22:13:20.572Z,66.81
2023-02-27T22:15:23.408Z,67.08
2023-02-27T22:17:25.229Z,66.19
2023-02-27T22:19:26.692Z,66.25
2023-02-27T22:21:28.894Z,66.90
2023-02-27T22:23:30.882Z,67.03
2023-02-27T22:25:32.454Z,66.77
2023-02-27T22:27:34.266Z,66.83
2023-02-27T22:29:38.042Z,66.48
2023-02-27T22:31:39.739Z,66.49
2023-02-27T22:33:45.630Z,66.79
2023-02-27T22:35:47.189Z,67.56
2023-02-27T22:38:07.706Z,67.04
2023-02-27T22:40:10.356Z,67.38
2023-02-27T22:42:11.928Z,68.12
2023-02-27T22:44:31.978Z,67.39
2023-02-27T22:46:37.329Z,67.51
2023-02-27T22:48:39.172Z,66.60
2023-02-27T22:50:40.780Z,66.74
2023-02-27T22:53:00.685Z,66.59
2023-02-27T22:55:02.438Z,67.30
2023-02-27T22:57:10.284Z,67.27
2023-02-27T22:59:11.889Z,67.47
2023-02-27T23:01:22.299Z,67.96
2023-02-27T23:03:24.072Z,67.49
2023-02-27T23:05:25.670Z,68.07
2023-02-27T23:07:47.069Z,67.54
2023-02-27T23:10:09.535Z,67.67
2023-02-27T23:12:11.188Z,67.66
2023-02-27T23:14:14.005Z,67.86
2023-02-27T23:16:17.582Z,67.36
2023-02-27T23:18:19.436Z,67.55
2023-02-27T23:20:20.961Z,67.69
2023-02-27T23:22:23.303Z,68.75
2023-02-27T23:24:25.186Z,69.03
2023-02-27T23:26:28.341Z,68.62
2023-02-27T23:28:30.544Z,68.59
2023-02-27T23:30:34.768Z,68.74
2023-02-27T23:32:44.323Z,68.29
2023-02-27T23:34:49.559Z,68.77
2023-02-27T23:36:51.594Z,68.97
2023-02-27T23:38:53.313Z,68.56
2023-02-27T23:40:55.326Z,68.04
2023-02-27T23:43:15.461Z,67.95
2023-02-27T23:45:23.373Z,67.83
2023-02-27T23:47:44.061Z,68.24
2023-02-27T23:49:45.669Z,67.91
2023-02-27T23:51:47.325Z,68.36
2023-02-27T23:53:48.803Z,69.22
2023-02-27T23:56:29.907Z,69.14
2023-02-27T23:58:31.491Z,69.13
